sensor_id;sensor_type;location;lat;lon;timestamp;noise_LAeq;noise_LA_min;noise_LA_max;noise_LA01;noise_LA95
66274;Laerm;58450;52.150;4.466;2022-09-16T00:00:53;44.24;37.58;52.00;;
66274;Laerm;58450;52.150;4.466;2022-09-16T00:03:22;44.87;38.30;50.02;;
66274;Laerm;58450;52.150;4.466;2022-09-16T00:05:52;42.51;36.34;50.81;;
66274;Laerm;58450;52.150;4.466;2022-09-16T00:08:20;44.39;37.24;53.27;;
66274;Laerm;58450;52.150;4.466;2022-09-16T00:10:49;49.97;42.63;62.54;;
66274;Laerm;58450;52.150;4.466;2022-09-16T00:13:17;53.32;48.87;66.36;;
66274;Laerm;58450;52.150;4.466;2022-09-16T00:15:48;49.95;45.63;58.42;;
66274;Laerm;58450;52.150;4.466;2022-09-16T00:18:17;49.92;44.30;64.45;;
66274;Laerm;58450;52.150;4.466;2022-09-16T00:20:50;52.80;41.88;69.07;;
66274;Laerm;58450;52.150;4.466;2022-09-16T00:23:18;48.24;37.97;60.04;;
66274;Laerm;58450;52.150;4.466;2022-09-16T00:25:50;46.25;34.19;65.82;;
66274;Laerm;58450;52.150;4.466;2022-09-16T00:28:19;44.21;34.52;59.19;;
66274;Laerm;58450;52.150;4.466;2022-09-16T00:30:47;46.40;33.60;63.02;;
66274;Laerm;58450;52.150;4.466;2022-09-16T00:33:15;41.75;33.41;53.96;;
66274;Laerm;58450;52.150;4.466;2022-09-16T00:35:43;41.00;33.57;54.62;;
66274;Laerm;58450;52.150;4.466;2022-09-16T00:38:12;41.94;34.00;53.12;;
66274;Laerm;58450;52.150;4.466;2022-09-16T00:40:44;41.06;33.03;56.65;;
66274;Laerm;58450;52.150;4.466;2022-09-16T00:43:13;46.72;33.81;62.48;;
66274;Laerm;58450;52.150;4.466;2022-09-16T00:45:43;43.19;33.13;54.48;;
66274;Laerm;58450;52.150;4.466;2022-09-16T00:48:19;43.47;34.31;56.98;;
66274;Laerm;58450;52.150;4.466;2022-09-16T00:50:51;49.44;40.54;58.13;;
66274;Laerm;58450;52.150;4.466;2022-09-16T00:53:26;51.54;45.11;61.85;;
66274;Laerm;58450;52.150;4.466;2022-09-16T00:55:57;48.67;40.14;60.72;;
66274;Laerm;58450;52.150;4.466;2022-09-16T00:58:37;45.20;36.07;57.25;;
66274;Laerm;58450;52.150;4.466;2022-09-16T01:01:07;43.84;34.52;57.38;;
66274;Laerm;58450;52.150;4.466;2022-09-16T01:03:41;43.21;33.83;60.10;;
66274;Laerm;58450;52.150;4.466;2022-09-16T01:06:12;42.75;34.34;56.02;;
66274;Laerm;58450;52.150;4.466;2022-09-16T01:08:42;41.85;33.89;54.61;;
66274;Laerm;58450;52.150;4.466;2022-09-16T01:11:11;42.37;34.97;55.39;;
66274;Laerm;58450;52.150;4.466;2022-09-16T01:13:40;45.47;35.48;54.03;;
66274;Laerm;58450;52.150;4.466;2022-09-16T01:16:16;52.15;39.83;65.75;;
66274;Laerm;58450;52.150;4.466;2022-09-16T01:18:54;51.29;45.18;65.50;;
66274;Laerm;58450;52.150;4.466;2022-09-16T01:21:38;47.54;42.42;53.39;;
66274;Laerm;58450;52.150;4.466;2022-09-16T01:24:36;47.24;41.41;61.37;;
66274;Laerm;58450;52.150;4.466;2022-09-16T01:27:31;45.22;39.75;55.44;;
66274;Laerm;58450;52.150;4.466;2022-09-16T01:30:30;45.90;39.05;58.54;;
66274;Laerm;58450;52.150;4.466;2022-09-16T01:33:02;45.30;38.47;54.68;;
66274;Laerm;58450;52.150;4.466;2022-09-16T01:35:46;45.54;36.30;57.12;;
66274;Laerm;58450;52.150;4.466;2022-09-16T01:38:38;45.52;38.23;51.79;;
66274;Laerm;58450;52.150;4.466;2022-09-16T01:41:20;44.51;38.22;51.89;;
66274;Laerm;58450;52.150;4.466;2022-09-16T01:43:58;45.71;38.10;51.85;;
66274;Laerm;58450;52.150;4.466;2022-09-16T01:46:38;44.70;37.62;52.07;;
66274;Laerm;58450;52.150;4.466;2022-09-16T01:49:18;42.78;34.46;51.11;;
66274;Laerm;58450;52.150;4.466;2022-09-16T01:51:53;42.27;35.37;51.28;;
66274;Laerm;58450;52.150;4.466;2022-09-16T01:54:32;41.45;33.48;51.50;;
66274;Laerm;58450;52.150;4.466;2022-09-16T01:57:10;41.00;34.32;50.33;;
66274;Laerm;58450;52.150;4.466;2022-09-16T01:59:46;41.46;34.45;49.72;;
66274;Laerm;58450;52.150;4.466;2022-09-16T02:02:20;44.71;36.10;52.75;;
66274;Laerm;58450;52.150;4.466;2022-09-16T02:04:55;47.73;41.50;57.66;;
66274;Laerm;58450;52.150;4.466;2022-09-16T02:07:27;44.88;39.05;50.32;;
66274;Laerm;58450;52.150;4.466;2022-09-16T02:10:06;45.25;37.68;53.81;;
66274;Laerm;58450;52.150;4.466;2022-09-16T02:12:41;46.98;41.21;51.88;;
66274;Laerm;58450;52.150;4.466;2022-09-16T02:15:17;48.78;36.88;68.03;;
66274;Laerm;58450;52.150;4.466;2022-09-16T02:17:55;42.08;35.38;52.37;;
66274;Laerm;58450;52.150;4.466;2022-09-16T02:20:29;41.15;34.39;51.95;;
66274;Laerm;58450;52.150;4.466;2022-09-16T02:23:04;41.08;34.95;50.14;;
66274;Laerm;58450;52.150;4.466;2022-09-16T02:25:37;40.98;33.92;52.74;;
66274;Laerm;58450;52.150;4.466;2022-09-16T02:28:11;41.48;34.40;50.49;;
66274;Laerm;58450;52.150;4.466;2022-09-16T02:30:44;49.45;34.50;64.35;;
66274;Laerm;58450;52.150;4.466;2022-09-16T02:33:16;41.04;34.35;57.51;;
66274;Laerm;58450;52.150;4.466;2022-09-16T02:35:51;42.83;35.93;51.12;;
66274;Laerm;58450;52.150;4.466;2022-09-16T02:38:24;53.04;45.31;68.81;;
66274;Laerm;58450;52.150;4.466;2022-09-16T02:40:56;55.18;46.57;74.84;;
66274;Laerm;58450;52.150;4.466;2022-09-16T02:43:26;50.98;45.96;65.00;;
66274;Laerm;58450;52.150;4.466;2022-09-16T02:46:08;56.53;47.37;66.49;;
66274;Laerm;58450;52.150;4.466;2022-09-16T02:48:54;49.44;40.84;61.35;;
66274;Laerm;58450;52.150;4.466;2022-09-16T02:51:33;45.80;40.23;56.13;;
66274;Laerm;58450;52.150;4.466;2022-09-16T02:54:11;44.68;38.38;55.68;;
66274;Laerm;58450;52.150;4.466;2022-09-16T02:56:42;45.32;39.72;55.42;;
66274;Laerm;58450;52.150;4.466;2022-09-16T02:59:11;47.33;36.82;63.05;;
66274;Laerm;58450;52.150;4.466;2022-09-16T03:01:42;44.09;36.12;56.67;;
66274;Laerm;58450;52.150;4.466;2022-09-16T03:04:15;43.43;36.53;56.05;;
66274;Laerm;58450;52.150;4.466;2022-09-16T03:06:44;42.79;35.70;55.44;;
66274;Laerm;58450;52.150;4.466;2022-09-16T03:09:14;42.82;34.98;60.42;;
66274;Laerm;58450;52.150;4.466;2022-09-16T03:12:11;41.80;35.24;55.30;;
66274;Laerm;58450;52.150;4.466;2022-09-16T03:14:56;41.89;35.16;55.77;;
66274;Laerm;58450;52.150;4.466;2022-09-16T03:17:54;43.50;36.48;54.09;;
66274;Laerm;58450;52.150;4.466;2022-09-16T03:20:41;42.11;36.04;54.32;;
66274;Laerm;58450;52.150;4.466;2022-09-16T03:23:23;42.00;35.59;54.27;;
66274;Laerm;58450;52.150;4.466;2022-09-16T03:25:59;48.64;37.47;71.54;;
66274;Laerm;58450;52.150;4.466;2022-09-16T03:28:38;46.61;37.51;65.00;;
66274;Laerm;58450;52.150;4.466;2022-09-16T03:31:16;46.37;36.62;67.30;;
66274;Laerm;58450;52.150;4.466;2022-09-16T03:33:50;51.65;40.33;64.04;;
66274;Laerm;58450;52.150;4.466;2022-09-16T03:36:28;49.27;42.24;57.43;;
66274;Laerm;58450;52.150;4.466;2022-09-16T03:39:00;46.83;40.31;56.39;;
66274;Laerm;58450;52.150;4.466;2022-09-16T03:41:31;44.39;38.03;55.75;;
66274;Laerm;58450;52.150;4.466;2022-09-16T03:44:00;47.62;40.19;60.58;;
66274;Laerm;58450;52.150;4.466;2022-09-16T03:46:28;43.09;37.62;51.27;;
66274;Laerm;58450;52.150;4.466;2022-09-16T03:48:56;45.42;39.25;61.95;;
66274;Laerm;58450;52.150;4.466;2022-09-16T03:51:25;50.51;37.03;73.60;;
66274;Laerm;58450;52.150;4.466;2022-09-16T03:53:53;43.77;37.68;64.84;;
66274;Laerm;58450;52.150;4.466;2022-09-16T03:56:22;45.78;37.62;62.69;;
66274;Laerm;58450;52.150;4.466;2022-09-16T03:58:51;48.54;38.23;65.95;;
66274;Laerm;58450;52.150;4.466;2022-09-16T04:01:18;44.04;37.40;56.16;;
66274;Laerm;58450;52.150;4.466;2022-09-16T04:03:46;43.77;36.90;54.32;;
66274;Laerm;58450;52.150;4.466;2022-09-16T04:06:14;45.09;38.18;55.95;;
66274;Laerm;58450;52.150;4.466;2022-09-16T04:08:42;44.42;38.76;55.62;;
66274;Laerm;58450;52.150;4.466;2022-09-16T04:11:10;44.02;38.33;53.52;;
66274;Laerm;58450;52.150;4.466;2022-09-16T04:13:38;50.67;36.35;65.61;;
66274;Laerm;58450;52.150;4.466;2022-09-16T04:16:05;48.45;38.71;59.35;;
66274;Laerm;58450;52.150;4.466;2022-09-16T04:18:33;49.08;40.50;67.27;;
66274;Laerm;58450;52.150;4.466;2022-09-16T04:21:03;51.89;39.65;76.17;;
66274;Laerm;58450;52.150;4.466;2022-09-16T04:23:31;52.08;44.03;71.82;;
66274;Laerm;58450;52.150;4.466;2022-09-16T04:26:01;50.55;42.91;64.13;;
66274;Laerm;58450;52.150;4.466;2022-09-16T04:28:31;52.48;45.19;69.85;;
66274;Laerm;58450;52.150;4.466;2022-09-16T04:31:00;50.45;43.04;56.28;;
66274;Laerm;58450;52.150;4.466;2022-09-16T04:33:29;53.35;46.12;65.11;;
66274;Laerm;58450;52.150;4.466;2022-09-16T04:36:06;47.98;42.22;58.52;;
66274;Laerm;58450;52.150;4.466;2022-09-16T04:38:34;50.10;44.11;63.44;;
66274;Laerm;58450;52.150;4.466;2022-09-16T04:41:07;48.93;43.32;57.96;;
66274;Laerm;58450;52.150;4.466;2022-09-16T04:43:35;50.98;43.86;66.36;;
66274;Laerm;58450;52.150;4.466;2022-09-16T04:46:04;51.69;46.67;62.76;;
66274;Laerm;58450;52.150;4.466;2022-09-16T04:48:32;56.35;46.27;73.11;;
66274;Laerm;58450;52.150;4.466;2022-09-16T04:51:02;55.85;45.36;74.79;;
66274;Laerm;58450;52.150;4.466;2022-09-16T04:53:30;51.21;43.25;69.86;;
66274;Laerm;58450;52.150;4.466;2022-09-16T04:56:06;50.74;42.90;62.27;;
66274;Laerm;58450;52.150;4.466;2022-09-16T04:58:34;52.30;45.74;70.79;;
66274;Laerm;58450;52.150;4.466;2022-09-16T05:01:05;54.26;44.09;67.20;;
66274;Laerm;58450;52.150;4.466;2022-09-16T05:03:33;50.29;45.26;60.78;;
66274;Laerm;58450;52.150;4.466;2022-09-16T05:06:05;52.55;47.62;59.33;;
66274;Laerm;58450;52.150;4.466;2022-09-16T05:08:33;53.62;44.78;65.94;;
66274;Laerm;58450;52.150;4.466;2022-09-16T05:11:07;52.35;45.53;72.05;;
66274;Laerm;58450;52.150;4.466;2022-09-16T05:13:36;55.09;45.34;72.71;;
66274;Laerm;58450;52.150;4.466;2022-09-16T05:16:07;51.16;44.81;65.31;;
66274;Laerm;58450;52.150;4.466;2022-09-16T05:18:36;55.86;45.43;73.46;;
66274;Laerm;58450;52.150;4.466;2022-09-16T05:21:07;58.25;45.89;78.40;;
66274;Laerm;58450;52.150;4.466;2022-09-16T05:23:36;52.11;46.48;66.69;;
66274;Laerm;58450;52.150;4.466;2022-09-16T05:26:09;53.64;48.04;60.16;;
66274;Laerm;58450;52.150;4.466;2022-09-16T05:28:38;53.93;49.29;60.91;;
66274;Laerm;58450;52.150;4.466;2022-09-16T05:31:10;53.39;46.95;65.80;;
66274;Laerm;58450;52.150;4.466;2022-09-16T05:33:39;51.26;45.95;64.42;;
66274;Laerm;58450;52.150;4.466;2022-09-16T05:36:10;51.22;46.86;70.99;;
66274;Laerm;58450;52.150;4.466;2022-09-16T05:38:38;52.65;47.30;63.65;;
66274;Laerm;58450;52.150;4.466;2022-09-16T05:41:07;53.03;46.97;77.72;;
66274;Laerm;58450;52.150;4.466;2022-09-16T05:43:36;56.24;46.56;72.06;;
66274;Laerm;58450;52.150;4.466;2022-09-16T05:46:05;56.78;50.20;73.08;;
66274;Laerm;58450;52.150;4.466;2022-09-16T05:48:34;57.70;50.22;76.78;;
66274;Laerm;58450;52.150;4.466;2022-09-16T05:51:04;59.77;53.00;76.20;;
66274;Laerm;58450;52.150;4.466;2022-09-16T05:53:33;66.60;58.82;82.31;;
66274;Laerm;58450;52.150;4.466;2022-09-16T05:56:04;66.14;59.28;80.56;;
66274;Laerm;58450;52.150;4.466;2022-09-16T05:58:34;65.24;53.96;76.59;;
66274;Laerm;58450;52.150;4.466;2022-09-16T06:01:05;56.77;50.10;69.62;;
66274;Laerm;58450;52.150;4.466;2022-09-16T06:03:36;56.01;51.35;67.48;;
66274;Laerm;58450;52.150;4.466;2022-09-16T06:06:08;54.30;49.66;66.34;;
66274;Laerm;58450;52.150;4.466;2022-09-16T06:08:39;54.74;48.46;69.10;;
66274;Laerm;58450;52.150;4.466;2022-09-16T06:11:09;54.23;49.31;69.28;;
66274;Laerm;58450;52.150;4.466;2022-09-16T06:13:39;57.46;48.39;82.15;;
66274;Laerm;58450;52.150;4.466;2022-09-16T06:16:08;56.19;48.01;80.20;;
66274;Laerm;58450;52.150;4.466;2022-09-16T06:18:36;53.26;47.20;68.80;;
66274;Laerm;58450;52.150;4.466;2022-09-16T06:21:07;53.23;47.03;68.94;;
66274;Laerm;58450;52.150;4.466;2022-09-16T06:23:37;53.37;47.52;65.16;;
66274;Laerm;58450;52.150;4.466;2022-09-16T06:26:08;54.21;47.73;69.52;;
66274;Laerm;58450;52.150;4.466;2022-09-16T06:28:37;56.43;47.36;79.61;;
66274;Laerm;58450;52.150;4.466;2022-09-16T06:31:07;56.14;49.00;75.03;;
66274;Laerm;58450;52.150;4.466;2022-09-16T06:33:37;53.06;46.94;68.14;;
66274;Laerm;58450;52.150;4.466;2022-09-16T06:36:08;52.88;47.14;61.08;;
66274;Laerm;58450;52.150;4.466;2022-09-16T06:38:36;56.54;49.45;68.71;;
66274;Laerm;58450;52.150;4.466;2022-09-16T06:41:06;52.99;46.91;70.03;;
66274;Laerm;58450;52.150;4.466;2022-09-16T06:43:35;53.55;48.99;61.20;;
66274;Laerm;58450;52.150;4.466;2022-09-16T06:46:07;55.47;48.43;67.31;;
66274;Laerm;58450;52.150;4.466;2022-09-16T06:48:40;55.86;49.27;78.02;;
66274;Laerm;58450;52.150;4.466;2022-09-16T06:51:11;53.55;49.17;67.32;;
66274;Laerm;58450;52.150;4.466;2022-09-16T06:53:40;54.11;45.09;65.72;;
66274;Laerm;58450;52.150;4.466;2022-09-16T06:56:10;50.11;44.51;60.82;;
66274;Laerm;58450;52.150;4.466;2022-09-16T06:58:41;50.28;44.65;64.23;;
66274;Laerm;58450;52.150;4.466;2022-09-16T07:01:12;52.16;45.64;71.72;;
66274;Laerm;58450;52.150;4.466;2022-09-16T07:03:43;50.29;45.49;57.15;;
66274;Laerm;58450;52.150;4.466;2022-09-16T07:06:12;48.89;42.94;65.38;;
66274;Laerm;58450;52.150;4.466;2022-09-16T07:08:41;51.23;44.09;61.84;;
66274;Laerm;58450;52.150;4.466;2022-09-16T07:11:12;51.01;44.81;57.58;;
66274;Laerm;58450;52.150;4.466;2022-09-16T07:13:40;53.38;47.13;66.78;;
66274;Laerm;58450;52.150;4.466;2022-09-16T07:16:12;51.26;43.32;64.88;;
66274;Laerm;58450;52.150;4.466;2022-09-16T07:18:41;52.21;42.91;63.98;;
66274;Laerm;58450;52.150;4.466;2022-09-16T07:21:12;49.11;43.89;58.42;;
66274;Laerm;58450;52.150;4.466;2022-09-16T07:23:41;50.43;46.13;65.01;;
66274;Laerm;58450;52.150;4.466;2022-09-16T07:26:12;50.90;44.47;61.97;;
66274;Laerm;58450;52.150;4.466;2022-09-16T07:28:42;55.11;43.90;73.74;;
66274;Laerm;58450;52.150;4.466;2022-09-16T07:31:16;51.58;45.14;64.47;;
66274;Laerm;58450;52.150;4.466;2022-09-16T07:33:46;49.14;43.92;59.34;;
66274;Laerm;58450;52.150;4.466;2022-09-16T07:36:17;53.48;44.64;72.65;;
66274;Laerm;58450;52.150;4.466;2022-09-16T07:38:45;52.64;46.44;72.77;;
66274;Laerm;58450;52.150;4.466;2022-09-16T07:41:18;48.86;43.44;56.62;;
66274;Laerm;58450;52.150;4.466;2022-09-16T07:43:47;51.85;43.80;66.76;;
66274;Laerm;58450;52.150;4.466;2022-09-16T07:46:18;51.66;45.53;67.04;;
66274;Laerm;58450;52.150;4.466;2022-09-16T07:48:48;53.70;44.88;68.77;;
66274;Laerm;58450;52.150;4.466;2022-09-16T07:51:18;51.21;46.52;63.89;;
66274;Laerm;58450;52.150;4.466;2022-09-16T07:53:47;56.77;46.88;76.17;;
66274;Laerm;58450;52.150;4.466;2022-09-16T07:56:16;58.00;51.98;64.46;;
66274;Laerm;58450;52.150;4.466;2022-09-16T07:58:46;54.44;47.97;65.90;;
66274;Laerm;58450;52.150;4.466;2022-09-16T08:01:15;53.88;48.45;69.76;;
66274;Laerm;58450;52.150;4.466;2022-09-16T08:03:45;55.20;49.35;72.39;;
66274;Laerm;58450;52.150;4.466;2022-09-16T08:06:15;52.99;48.26;63.36;;
66274;Laerm;58450;52.150;4.466;2022-09-16T08:08:45;52.36;47.09;66.46;;
66274;Laerm;58450;52.150;4.466;2022-09-16T08:11:14;51.72;47.30;60.36;;
66274;Laerm;58450;52.150;4.466;2022-09-16T08:13:42;54.31;48.04;74.00;;
66274;Laerm;58450;52.150;4.466;2022-09-16T08:16:13;52.35;45.14;74.08;;
66274;Laerm;58450;52.150;4.466;2022-09-16T08:18:43;52.68;46.92;64.18;;
66274;Laerm;58450;52.150;4.466;2022-09-16T08:21:14;54.34;46.93;71.32;;
66274;Laerm;58450;52.150;4.466;2022-09-16T08:23:41;51.26;46.85;60.81;;
66274;Laerm;58450;52.150;4.466;2022-09-16T08:26:11;51.38;45.62;67.03;;
66274;Laerm;58450;52.150;4.466;2022-09-16T08:28:41;52.14;43.70;67.00;;
66274;Laerm;58450;52.150;4.466;2022-09-16T08:31:09;52.94;46.10;64.43;;
66274;Laerm;58450;52.150;4.466;2022-09-16T08:33:38;52.41;47.31;58.54;;
66274;Laerm;58450;52.150;4.466;2022-09-16T08:36:12;53.54;48.21;68.09;;
66274;Laerm;58450;52.150;4.466;2022-09-16T08:38:43;54.60;48.64;66.29;;
66274;Laerm;58450;52.150;4.466;2022-09-16T08:41:28;53.81;47.46;68.70;;
66274;Laerm;58450;52.150;4.466;2022-09-16T08:44:11;55.09;49.96;66.13;;
66274;Laerm;58450;52.150;4.466;2022-09-16T08:46:48;55.69;50.80;69.98;;
66274;Laerm;58450;52.150;4.466;2022-09-16T08:49:28;56.45;49.36;78.43;;
66274;Laerm;58450;52.150;4.466;2022-09-16T08:52:03;55.41;47.46;74.55;;
66274;Laerm;58450;52.150;4.466;2022-09-16T08:54:37;54.93;48.91;67.45;;
66274;Laerm;58450;52.150;4.466;2022-09-16T08:57:13;57.07;49.94;78.05;;
66274;Laerm;58450;52.150;4.466;2022-09-16T08:59:48;56.07;48.95;69.12;;
66274;Laerm;58450;52.150;4.466;2022-09-16T09:02:36;54.78;50.45;67.33;;
66274;Laerm;58450;52.150;4.466;2022-09-16T09:05:15;53.41;45.57;69.95;;
66274;Laerm;58450;52.150;4.466;2022-09-16T09:08:10;52.07;45.74;64.03;;
66274;Laerm;58450;52.150;4.466;2022-09-16T09:10:48;49.46;44.18;57.60;;
66274;Laerm;58450;52.150;4.466;2022-09-16T09:13:37;52.68;47.26;63.16;;
66274;Laerm;58450;52.150;4.466;2022-09-16T09:16:22;51.77;46.86;63.47;;
66274;Laerm;58450;52.150;4.466;2022-09-16T09:19:03;51.56;44.13;64.30;;
66274;Laerm;58450;52.150;4.466;2022-09-16T09:21:43;61.15;45.65;93.76;;
66274;Laerm;58450;52.150;4.466;2022-09-16T09:24:30;52.29;46.51;68.21;;
66274;Laerm;58450;52.150;4.466;2022-09-16T09:27:13;51.53;45.81;60.96;;
66274;Laerm;58450;52.150;4.466;2022-09-16T09:30:01;51.69;47.32;62.87;;
66274;Laerm;58450;52.150;4.466;2022-09-16T09:32:50;52.06;46.76;61.91;;
66274;Laerm;58450;52.150;4.466;2022-09-16T09:35:35;53.45;47.77;77.22;;
66274;Laerm;58450;52.150;4.466;2022-09-16T09:38:40;53.69;48.49;64.21;;
66274;Laerm;58450;52.150;4.466;2022-09-16T09:41:18;53.29;47.84;60.55;;
66274;Laerm;58450;52.150;4.466;2022-09-16T09:43:54;55.05;48.61;66.36;;
66274;Laerm;58450;52.150;4.466;2022-09-16T09:46:28;53.96;47.40;66.65;;
66274;Laerm;58450;52.150;4.466;2022-09-16T09:49:06;56.27;47.59;67.26;;
66274;Laerm;58450;52.150;4.466;2022-09-16T09:51:42;55.97;50.85;67.96;;
66274;Laerm;58450;52.150;4.466;2022-09-16T09:54:26;53.98;48.86;61.43;;
66274;Laerm;58450;52.150;4.466;2022-09-16T09:57:02;53.31;48.78;60.33;;
66274;Laerm;58450;52.150;4.466;2022-09-16T09:59:38;59.08;46.31;83.81;;
66274;Laerm;58450;52.150;4.466;2022-09-16T10:02:16;55.50;46.75;75.54;;
66274;Laerm;58450;52.150;4.466;2022-09-16T10:04:45;51.65;46.87;59.68;;
66274;Laerm;58450;52.150;4.466;2022-09-16T10:07:18;52.13;46.71;67.38;;
66274;Laerm;58450;52.150;4.466;2022-09-16T10:09:53;52.20;47.39;63.70;;
66274;Laerm;58450;52.150;4.466;2022-09-16T10:12:32;52.56;45.17;64.22;;
66274;Laerm;58450;52.150;4.466;2022-09-16T10:15:00;55.52;48.41;80.59;;
66274;Laerm;58450;52.150;4.466;2022-09-16T10:17:30;54.30;48.33;65.91;;
66274;Laerm;58450;52.150;4.466;2022-09-16T10:20:02;54.57;49.17;66.03;;
66274;Laerm;58450;52.150;4.466;2022-09-16T10:22:33;55.27;50.42;68.81;;
66274;Laerm;58450;52.150;4.466;2022-09-16T10:25:04;54.00;47.55;61.86;;
66274;Laerm;58450;52.150;4.466;2022-09-16T10:27:37;54.32;49.16;65.46;;
66274;Laerm;58450;52.150;4.466;2022-09-16T10:30:12;55.95;49.26;65.86;;
66274;Laerm;58450;52.150;4.466;2022-09-16T10:32:50;53.82;46.78;67.28;;
66274;Laerm;58450;52.150;4.466;2022-09-16T10:35:25;54.14;47.64;68.41;;
66274;Laerm;58450;52.150;4.466;2022-09-16T10:37:55;53.48;47.66;67.69;;
66274;Laerm;58450;52.150;4.466;2022-09-16T10:40:24;52.49;45.60;68.10;;
66274;Laerm;58450;52.150;4.466;2022-09-16T10:43:01;56.26;48.74;67.53;;
66274;Laerm;58450;52.150;4.466;2022-09-16T10:45:34;50.95;45.74;59.84;;
66274;Laerm;58450;52.150;4.466;2022-09-16T10:48:06;52.57;45.51;67.14;;
66274;Laerm;58450;52.150;4.466;2022-09-16T10:50:38;53.89;46.26;73.68;;
66274;Laerm;58450;52.150;4.466;2022-09-16T10:53:24;52.50;46.79;63.80;;
66274;Laerm;58450;52.150;4.466;2022-09-16T10:56:01;53.89;48.47;66.13;;
66274;Laerm;58450;52.150;4.466;2022-09-16T10:58:31;53.92;49.40;63.55;;
66274;Laerm;58450;52.150;4.466;2022-09-16T11:01:20;54.31;46.65;67.29;;
66274;Laerm;58450;52.150;4.466;2022-09-16T11:04:43;52.71;47.37;64.57;;
66274;Laerm;58450;52.150;4.466;2022-09-16T11:07:31;53.64;48.03;65.16;;
66274;Laerm;58450;52.150;4.466;2022-09-16T11:10:16;52.17;47.56;62.32;;
66274;Laerm;58450;52.150;4.466;2022-09-16T11:13:17;56.38;48.52;69.73;;
66274;Laerm;58450;52.150;4.466;2022-09-16T11:16:12;56.79;51.40;73.62;;
66274;Laerm;58450;52.150;4.466;2022-09-16T11:18:54;56.12;49.82;66.71;;
66274;Laerm;58450;52.150;4.466;2022-09-16T11:21:48;59.22;51.63;74.35;;
66274;Laerm;58450;52.150;4.466;2022-09-16T11:24:43;60.11;53.42;78.37;;
66274;Laerm;58450;52.150;4.466;2022-09-16T11:27:29;59.50;52.60;77.82;;
66274;Laerm;58450;52.150;4.466;2022-09-16T11:30:03;57.30;50.94;66.52;;
66274;Laerm;58450;52.150;4.466;2022-09-16T11:33:13;60.03;48.96;76.84;;
66274;Laerm;58450;52.150;4.466;2022-09-16T11:36:22;54.13;46.19;79.33;;
66274;Laerm;58450;52.150;4.466;2022-09-16T11:39:10;55.94;49.46;78.01;;
66274;Laerm;58450;52.150;4.466;2022-09-16T11:41:49;58.80;48.58;74.76;;
66274;Laerm;58450;52.150;4.466;2022-09-16T11:44:37;57.69;51.27;72.42;;
66274;Laerm;58450;52.150;4.466;2022-09-16T11:47:26;55.70;51.10;66.83;;
66274;Laerm;58450;52.150;4.466;2022-09-16T11:50:18;55.73;51.09;67.23;;
66274;Laerm;58450;52.150;4.466;2022-09-16T11:53:21;56.69;50.14;68.29;;
66274;Laerm;58450;52.150;4.466;2022-09-16T11:55:58;55.21;50.23;64.61;;
66274;Laerm;58450;52.150;4.466;2022-09-16T11:58:36;55.88;50.02;70.50;;
66274;Laerm;58450;52.150;4.466;2022-09-16T12:01:31;55.76;49.55;67.15;;
66274;Laerm;58450;52.150;4.466;2022-09-16T12:04:09;57.86;52.51;68.14;;
66274;Laerm;58450;52.150;4.466;2022-09-16T12:06:56;55.31;49.09;66.85;;
66274;Laerm;58450;52.150;4.466;2022-09-16T12:09:37;55.83;50.29;66.91;;
66274;Laerm;58450;52.150;4.466;2022-09-16T12:12:12;56.78;49.49;67.22;;
66274;Laerm;58450;52.150;4.466;2022-09-16T12:14:44;57.82;49.27;73.42;;
66274;Laerm;58450;52.150;4.466;2022-09-16T12:17:18;56.75;50.80;68.25;;
66274;Laerm;58450;52.150;4.466;2022-09-16T12:19:53;60.07;52.77;74.37;;
66274;Laerm;58450;52.150;4.466;2022-09-16T12:22:29;55.25;49.54;74.52;;
66274;Laerm;58450;52.150;4.466;2022-09-16T12:25:07;53.18;47.48;67.30;;
66274;Laerm;58450;52.150;4.466;2022-09-16T12:27:46;55.90;50.93;67.87;;
66274;Laerm;58450;52.150;4.466;2022-09-16T12:30:20;57.82;51.03;70.73;;
66274;Laerm;58450;52.150;4.466;2022-09-16T12:32:58;55.50;48.63;67.13;;
66274;Laerm;58450;52.150;4.466;2022-09-16T12:35:32;52.21;47.14;65.32;;
66274;Laerm;58450;52.150;4.466;2022-09-16T12:38:02;55.10;48.68;63.37;;
66274;Laerm;58450;52.150;4.466;2022-09-16T12:40:40;56.36;50.98;67.54;;
66274;Laerm;58450;52.150;4.466;2022-09-16T12:43:38;55.80;47.00;65.77;;
66274;Laerm;58450;52.150;4.466;2022-09-16T12:46:41;53.58;46.34;65.23;;
66274;Laerm;58450;52.150;4.466;2022-09-16T12:50:08;51.14;45.83;62.18;;
66274;Laerm;58450;52.150;4.466;2022-09-16T12:56:17;54.49;48.54;61.00;;
66274;Laerm;58450;52.150;4.466;2022-09-16T12:59:19;53.76;47.33;67.87;;
66274;Laerm;58450;52.150;4.466;2022-09-16T13:01:52;57.66;49.91;70.44;;
66274;Laerm;58450;52.150;4.466;2022-09-16T13:04:29;57.16;51.56;65.22;;
66274;Laerm;58450;52.150;4.466;2022-09-16T13:06:59;57.51;50.87;72.90;;
66274;Laerm;58450;52.150;4.466;2022-09-16T13:09:31;58.17;51.18;82.62;;
66274;Laerm;58450;52.150;4.466;2022-09-16T13:12:06;57.63;53.14;71.65;;
66274;Laerm;58450;52.150;4.466;2022-09-16T13:14:48;58.06;51.74;76.02;;
66274;Laerm;58450;52.150;4.466;2022-09-16T13:17:28;57.80;50.00;74.18;;
66274;Laerm;58450;52.150;4.466;2022-09-16T13:20:03;56.87;51.71;63.05;;
66274;Laerm;58450;52.150;4.466;2022-09-16T13:22:43;55.36;50.28;61.76;;
66274;Laerm;58450;52.150;4.466;2022-09-16T13:25:21;54.29;48.53;64.50;;
66274;Laerm;58450;52.150;4.466;2022-09-16T13:27:57;52.95;48.29;59.51;;
66274;Laerm;58450;52.150;4.466;2022-09-16T13:30:35;53.76;48.78;62.33;;
66274;Laerm;58450;52.150;4.466;2022-09-16T13:33:27;54.35;49.95;59.84;;
66274;Laerm;58450;52.150;4.466;2022-09-16T13:36:13;54.43;48.89;67.98;;
66274;Laerm;58450;52.150;4.466;2022-09-16T13:38:44;57.49;49.48;70.17;;
66274;Laerm;58450;52.150;4.466;2022-09-16T13:41:33;56.10;51.95;61.36;;
66274;Laerm;58450;52.150;4.466;2022-09-16T13:44:29;56.76;50.31;67.65;;
66274;Laerm;58450;52.150;4.466;2022-09-16T13:47:16;54.98;49.64;61.45;;
66274;Laerm;58450;52.150;4.466;2022-09-16T13:49:49;53.30;49.12;66.73;;
66274;Laerm;58450;52.150;4.466;2022-09-16T13:52:24;56.47;48.42;66.75;;
66274;Laerm;58450;52.150;4.466;2022-09-16T13:54:55;56.43;51.87;64.71;;
66274;Laerm;58450;52.150;4.466;2022-09-16T13:57:40;56.09;51.62;61.88;;
66274;Laerm;58450;52.150;4.466;2022-09-16T14:00:17;57.38;51.92;71.60;;
66274;Laerm;58450;52.150;4.466;2022-09-16T14:03:10;56.35;48.40;67.43;;
66274;Laerm;58450;52.150;4.466;2022-09-16T14:06:03;55.93;48.20;63.98;;
66274;Laerm;58450;52.150;4.466;2022-09-16T14:08:46;54.19;47.96;61.62;;
66274;Laerm;58450;52.150;4.466;2022-09-16T14:11:26;52.76;47.36;58.42;;
66274;Laerm;58450;52.150;4.466;2022-09-16T14:14:02;57.67;50.41;70.31;;
66274;Laerm;58450;52.150;4.466;2022-09-16T14:16:34;55.18;49.70;66.65;;
66274;Laerm;58450;52.150;4.466;2022-09-16T14:19:23;57.13;49.19;68.84;;
66274;Laerm;58450;52.150;4.466;2022-09-16T14:22:04;72.69;50.23;95.90;;
66274;Laerm;58450;52.150;4.466;2022-09-16T14:24:35;55.72;49.63;65.54;;
66274;Laerm;58450;52.150;4.466;2022-09-16T14:27:04;54.18;48.86;59.47;;
66274;Laerm;58450;52.150;4.466;2022-09-16T14:29:32;55.33;49.78;69.84;;
66274;Laerm;58450;52.150;4.466;2022-09-16T14:32:02;55.03;46.41;70.03;;
66274;Laerm;58450;52.150;4.466;2022-09-16T14:34:35;53.40;48.41;63.40;;